sensor_id;sensor_type;location;lat;lon;timestamp;pressure;altitude;pressure_sealevel;temperature;humidity
61568;BME280;47462;59.172;17.196;2022-09-09T00:00:56;101873.72;;;11.47;64.47
61568;BME280;47462;59.172;17.196;2022-09-09T00:03:27;101865.88;;;11.46;64.29
61568;BME280;47462;59.172;17.196;2022-09-09T00:11:46;101854.50;;;11.48;63.98
61568;BME280;47462;59.172;17.196;2022-09-09T00:16:53;101852.75;;;11.50;63.93
61568;BME280;47462;59.172;17.196;2022-09-09T00:20:06;101847.44;;;11.56;63.76
61568;BME280;47462;59.172;17.196;2022-09-09T00:22:48;101847.44;;;11.56;63.50
61568;BME280;47462;59.172;17.196;2022-09-09T00:25:11;101850.91;;;11.57;63.46
61568;BME280;47462;59.172;17.196;2022-09-09T00:27:47;101837.06;;;11.50;63.28
61568;BME280;47462;59.172;17.196;2022-09-09T00:30:22;101832.66;;;11.52;63.17
61568;BME280;47462;59.172;17.196;2022-09-09T00:32:50;101845.63;;;11.60;63.01
61568;BME280;47462;59.172;17.196;2022-09-09T00:35:25;101833.47;;;11.57;62.87
61568;BME280;47462;59.172;17.196;2022-09-09T00:37:54;101836.94;;;11.59;62.85
61568;BME280;47462;59.172;17.196;2022-09-09T00:41:10;101838.59;;;11.64;62.62
61568;BME280;47462;59.172;17.196;2022-09-09T00:43:39;101826.44;;;11.63;62.48
61568;BME280;47462;59.172;17.196;2022-09-09T00:51:57;101836.78;;;11.69;62.04
61568;BME280;47462;59.172;17.196;2022-09-09T00:57:25;101829.78;;;11.71;61.88
61568;BME280;47462;59.172;17.196;2022-09-09T00:59:59;101829.78;;;11.71;61.59
61568;BME280;47462;59.172;17.196;2022-09-09T01:02:36;101823.66;;;11.72;61.16
61568;BME280;47462;59.172;17.196;2022-09-09T01:05:22;101787.34;;;11.53;61.33
61568;BME280;47462;59.172;17.196;2022-09-09T01:07:51;101813.16;;;11.75;61.23
61568;BME280;47462;59.172;17.196;2022-09-09T01:13:01;101807.00;;;11.77;61.06
61568;BME280;47462;59.172;17.196;2022-09-09T01:15:31;101801.91;;;11.68;60.77
61568;BME280;47462;59.172;17.196;2022-09-09T01:18:06;101810.47;;;11.80;60.98
61568;BME280;47462;59.172;17.196;2022-09-09T01:20:49;101799.16;;;11.77;61.03
61568;BME280;47462;59.172;17.196;2022-09-09T01:23:47;101806.16;;;11.75;60.93
61568;BME280;47462;59.172;17.196;2022-09-09T01:29:01;101812.25;;;11.76;60.99
61568;BME280;47462;59.172;17.196;2022-09-09T01:31:31;101807.03;;;11.76;60.91
61568;BME280;47462;59.172;17.196;2022-09-09T01:33:57;101771.59;;;11.58;60.85
61568;BME280;47462;59.172;17.196;2022-09-09T01:36:33;101799.19;;;11.76;60.92
61568;BME280;47462;59.172;17.196;2022-09-09T01:39:03;101801.72;;;11.81;60.94
61568;BME280;47462;59.172;17.196;2022-09-09T01:41:29;101759.47;;;11.52;60.79
61568;BME280;47462;59.172;17.196;2022-09-09T01:43:55;101798.25;;;11.80;61.00
61568;BME280;47462;59.172;17.196;2022-09-09T01:46:21;101802.59;;;11.81;61.00
61568;BME280;47462;59.172;17.196;2022-09-09T01:48:48;101796.50;;;11.79;60.77
61568;BME280;47462;59.172;17.196;2022-09-09T01:51:14;101790.34;;;11.83;60.82
61568;BME280;47462;59.172;17.196;2022-09-09T01:53:41;101769.59;;;11.72;60.76
61568;BME280;47462;59.172;17.196;2022-09-09T01:59:10;101779.03;;;11.83;60.88
61568;BME280;47462;59.172;17.196;2022-09-09T02:01:45;101777.22;;;11.86;60.78
61568;BME280;47462;59.172;17.196;2022-09-09T02:04:39;101778.09;;;11.87;60.70
61568;BME280;47462;59.172;17.196;2022-09-09T02:09:39;101701.22;;;11.46;60.79
61568;BME280;47462;59.172;17.196;2022-09-09T02:12:11;101756.34;;;11.83;60.98
61568;BME280;47462;59.172;17.196;2022-09-09T02:14:47;101773.69;;;11.90;60.92
61568;BME280;47462;59.172;17.196;2022-09-09T02:17:19;101732.19;;;11.69;60.88
61568;BME280;47462;59.172;17.196;2022-09-09T02:19:50;101769.28;;;11.91;60.99
61568;BME280;47462;59.172;17.196;2022-09-09T02:22:19;101741.69;;;11.73;61.03
61568;BME280;47462;59.172;17.196;2022-09-09T02:24:47;101765.81;;;11.93;61.12
61568;BME280;47462;59.172;17.196;2022-09-09T02:27:16;101772.81;;;11.93;61.06
61568;BME280;47462;59.172;17.196;2022-09-09T02:29:43;101768.44;;;11.90;61.04
61568;BME280;47462;59.172;17.196;2022-09-09T02:32:15;101776.22;;;11.97;61.03
61568;BME280;47462;59.172;17.196;2022-09-09T02:34:48;101758.00;;;11.89;61.00
61568;BME280;47462;59.172;17.196;2022-09-09T02:37:17;101777.06;;;11.97;61.09
61568;BME280;47462;59.172;17.196;2022-09-09T02:39:44;101770.13;;;11.96;61.10
61568;BME280;47462;59.172;17.196;2022-09-09T02:42:10;101767.53;;;11.96;61.09
61568;BME280;47462;59.172;17.196;2022-09-09T02:44:35;101666.47;;;11.39;61.22
61568;BME280;47462;59.172;17.196;2022-09-09T02:52:01;101756.16;;;11.95;61.62
61568;BME280;47462;59.172;17.196;2022-09-09T02:54:32;101747.50;;;11.93;61.73
61568;BME280;47462;59.172;17.196;2022-09-09T02:57:12;101755.34;;;11.93;61.89
61568;BME280;47462;59.172;17.196;2022-09-09T02:59:40;101714.63;;;11.77;61.76
61568;BME280;47462;59.172;17.196;2022-09-09T03:02:06;101746.63;;;11.94;61.78
61568;BME280;47462;59.172;17.196;2022-09-09T03:04:32;101750.09;;;11.95;61.94
61568;BME280;47462;59.172;17.196;2022-09-09T03:06:58;101740.53;;;11.91;62.14
61568;BME280;47462;59.172;17.196;2022-09-09T03:09:24;101737.00;;;11.95;62.06
61568;BME280;47462;59.172;17.196;2022-09-09T03:11:51;101744.00;;;11.94;62.16
61568;BME280;47462;59.172;17.196;2022-09-09T03:14:17;101724.91;;;11.86;62.27
61568;BME280;47462;59.172;17.196;2022-09-09T03:16:46;101740.47;;;11.95;62.31
61568;BME280;47462;59.172;17.196;2022-09-09T03:19:12;101745.75;;;11.92;62.54
61568;BME280;47462;59.172;17.196;2022-09-09T03:21:37;101720.69;;;11.77;62.63
61568;BME280;47462;59.172;17.196;2022-09-09T03:24:03;101730.22;;;11.82;62.72
61568;BME280;47462;59.172;17.196;2022-09-09T03:26:29;101725.94;;;11.77;62.84
61568;BME280;47462;59.172;17.196;2022-09-09T03:28:56;101732.00;;;11.81;62.87
61568;BME280;47462;59.172;17.196;2022-09-09T03:31:21;101696.69;;;11.55;62.91
61568;BME280;47462;59.172;17.196;2022-09-09T03:33:47;101703.69;;;11.53;63.13
61568;BME280;47462;59.172;17.196;2022-09-09T03:36:13;101665.69;;;11.34;63.23
61568;BME280;47462;59.172;17.196;2022-09-09T03:38:39;101726.13;;;11.67;63.57
61568;BME280;47462;59.172;17.196;2022-09-09T03:41:04;101720.94;;;11.64;63.62
61568;BME280;47462;59.172;17.196;2022-09-09T03:43:33;101702.13;;;11.41;63.75
61568;BME280;47462;59.172;17.196;2022-09-09T03:45:58;101706.47;;;11.44;63.94
61568;BME280;47462;59.172;17.196;2022-09-09T03:48:24;101728.13;;;11.51;63.92
61568;BME280;47462;59.172;17.196;2022-09-09T03:50:52;101728.22;;;11.46;63.88
61568;BME280;47462;59.172;17.196;2022-09-09T03:53:20;101726.44;;;11.47;64.29
61568;BME280;47462;59.172;17.196;2022-09-09T03:55:48;101730.78;;;11.48;64.24
61568;BME280;47462;59.172;17.196;2022-09-09T03:58:14;101733.44;;;11.46;64.26
61568;BME280;47462;59.172;17.196;2022-09-09T04:00:40;101712.72;;;11.34;64.23
61568;BME280;47462;59.172;17.196;2022-09-09T04:03:10;101730.06;;;11.39;64.54
61568;BME280;47462;59.172;17.196;2022-09-09T04:05:36;101703.28;;;11.23;64.40
61568;BME280;47462;59.172;17.196;2022-09-09T04:08:06;101745.78;;;11.38;64.47
61568;BME280;47462;59.172;17.196;2022-09-09T04:10:31;101711.88;;;11.32;64.49
61568;BME280;47462;59.172;17.196;2022-09-09T04:12:57;101689.41;;;11.21;64.48
61568;BME280;47462;59.172;17.196;2022-09-09T04:15:22;101723.06;;;11.40;64.46
61568;BME280;47462;59.172;17.196;2022-09-09T04:17:47;101704.06;;;11.30;64.35
61568;BME280;47462;59.172;17.196;2022-09-09T04:20:13;101726.50;;;11.43;64.39
61568;BME280;47462;59.172;17.196;2022-09-09T04:22:38;101706.66;;;11.32;64.66
61568;BME280;47462;59.172;17.196;2022-09-09T04:25:05;101734.31;;;11.45;64.54
61568;BME280;47462;59.172;17.196;2022-09-09T04:27:31;101704.06;;;11.30;64.25
61568;BME280;47462;59.172;17.196;2022-09-09T04:29:57;101667.72;;;11.13;64.47
61568;BME280;47462;59.172;17.196;2022-09-09T04:32:23;101695.38;;;11.28;64.60
61568;BME280;47462;59.172;17.196;2022-09-09T04:34:48;101707.50;;;11.32;64.72
61568;BME280;47462;59.172;17.196;2022-09-09T04:37:14;101717.06;;;11.35;64.93
61568;BME280;47462;59.172;17.196;2022-09-09T04:39:39;101731.78;;;11.39;64.92
61568;BME280;47462;59.172;17.196;2022-09-09T04:42:05;101718.06;;;11.26;65.12
61568;BME280;47462;59.172;17.196;2022-09-09T04:44:30;101726.59;;;11.37;65.04
61568;BME280;47462;59.172;17.196;2022-09-09T04:46:56;101708.44;;;11.28;65.17
61568;BME280;47462;59.172;17.196;2022-09-09T04:49:21;101680.72;;;11.19;65.27
61568;BME280;47462;59.172;17.196;2022-09-09T04:51:48;101709.28;;;11.32;65.16
61568;BME280;47462;59.172;17.196;2022-09-09T04:54:14;101722.16;;;11.44;65.31
61568;BME280;47462;59.172;17.196;2022-09-09T04:56:39;101679.03;;;11.15;65.25
61568;BME280;47462;59.172;17.196;2022-09-09T04:59:07;101723.81;;;11.48;64.93
61568;BME280;47462;59.172;17.196;2022-09-09T05:01:33;101665.13;;;11.13;65.01
61568;BME280;47462;59.172;17.196;2022-09-09T05:03:59;101727.22;;;11.53;64.75
61568;BME280;47462;59.172;17.196;2022-09-09T05:06:24;101723.69;;;11.54;64.73
61568;BME280;47462;59.172;17.196;2022-09-09T05:08:50;101689.28;;;11.28;64.69
61568;BME280;47462;59.172;17.196;2022-09-09T05:11:23;101725.63;;;11.43;64.76
61568;BME280;47462;59.172;17.196;2022-09-09T05:13:50;101698.81;;;11.33;64.90
61568;BME280;47462;59.172;17.196;2022-09-09T05:16:16;101730.66;;;11.55;64.64
61568;BME280;47462;59.172;17.196;2022-09-09T05:18:42;101722.09;;;11.47;64.66
61568;BME280;47462;59.172;17.196;2022-09-09T05:21:08;101738.44;;;11.60;64.61
61568;BME280;47462;59.172;17.196;2022-09-09T05:23:34;101706.50;;;11.42;64.75
61568;BME280;47462;59.172;17.196;2022-09-09T05:26:02;101736.66;;;11.60;64.54
61568;BME280;47462;59.172;17.196;2022-09-09T05:28:28;101735.75;;;11.65;64.43
61568;BME280;47462;59.172;17.196;2022-09-09T05:31:00;101738.25;;;11.71;64.25
61568;BME280;47462;59.172;17.196;2022-09-09T05:33:29;101700.88;;;11.66;63.96
61568;BME280;47462;59.172;17.196;2022-09-09T05:35:56;101730.00;;;11.95;63.60
61568;BME280;47462;59.172;17.196;2022-09-09T05:38:21;101717.72;;;12.01;63.50
61568;BME280;47462;59.172;17.196;2022-09-09T05:40:49;101720.94;;;12.15;63.08
61568;BME280;47462;59.172;17.196;2022-09-09T05:43:15;101648.28;;;11.83;62.87
61568;BME280;47462;59.172;17.196;2022-09-09T05:45:40;101733.53;;;12.40;62.04
61568;BME280;47462;59.172;17.196;2022-09-09T05:48:06;101720.53;;;12.37;62.41
61568;BME280;47462;59.172;17.196;2022-09-09T05:50:33;101735.88;;;12.54;62.00
61568;BME280;47462;59.172;17.196;2022-09-09T05:52:58;101737.44;;;12.64;61.72
61568;BME280;47462;59.172;17.196;2022-09-09T05:55:24;101731.19;;;12.71;61.58
61568;BME280;47462;59.172;17.196;2022-09-09T05:57:50;101736.25;;;12.79;61.11
61568;BME280;47462;59.172;17.196;2022-09-09T06:00:17;101727.31;;;12.88;60.77
61568;BME280;47462;59.172;17.196;2022-09-09T06:02:43;101681.38;;;12.73;61.00
61568;BME280;47462;59.172;17.196;2022-09-09T06:05:09;101721.69;;;13.05;60.72
61568;BME280;47462;59.172;17.196;2022-09-09T06:07:35;101718.84;;;13.14;60.40
61568;BME280;47462;59.172;17.196;2022-09-09T06:10:01;101724.72;;;13.25;60.03
61568;BME280;47462;59.172;17.196;2022-09-09T06:12:26;101687.41;;;13.14;59.93
61568;BME280;47462;59.172;17.196;2022-09-09T06:14:52;101724.22;;;13.48;59.73
61568;BME280;47462;59.172;17.196;2022-09-09T06:17:17;101729.16;;;13.61;59.29
61568;BME280;47462;59.172;17.196;2022-09-09T06:19:43;101715.19;;;13.60;58.61
61568;BME280;47462;59.172;17.196;2022-09-09T06:22:08;101693.28;;;13.61;58.21
61568;BME280;47462;59.172;17.196;2022-09-09T06:24:37;101681.75;;;13.68;58.15
61568;BME280;47462;59.172;17.196;2022-09-09T06:27:03;101691.69;;;13.88;57.85
61568;BME280;47462;59.172;17.196;2022-09-09T06:29:30;101721.44;;;14.22;57.42
61568;BME280;47462;59.172;17.196;2022-09-09T06:31:55;101660.75;;;14.01;57.14
61568;BME280;47462;59.172;17.196;2022-09-09T06:34:21;101713.03;;;14.40;56.71
61568;BME280;47462;59.172;17.196;2022-09-09T06:36:47;101703.72;;;14.28;56.62
61568;BME280;47462;59.172;17.196;2022-09-09T06:39:12;101717.34;;;14.43;56.59
61568;BME280;47462;59.172;17.196;2022-09-09T06:41:41;101705.06;;;14.43;56.30
61568;BME280;47462;59.172;17.196;2022-09-09T06:44:10;101703.84;;;14.55;55.95
61568;BME280;47462;59.172;17.196;2022-09-09T06:46:38;101674.16;;;14.53;55.75
61568;BME280;47462;59.172;17.196;2022-09-09T06:49:04;101716.16;;;14.85;55.55
61568;BME280;47462;59.172;17.196;2022-09-09T06:51:31;101701.38;;;14.80;55.55
61568;BME280;47462;59.172;17.196;2022-09-09T06:54:00;101712.91;;;14.76;55.94
61568;BME280;47462;59.172;17.196;2022-09-09T06:58:55;101717.13;;;14.51;55.85
61568;BME280;47462;59.172;17.196;2022-09-09T07:01:26;101722.00;;;14.65;55.51
61568;BME280;47462;59.172;17.196;2022-09-09T07:03:56;101717.09;;;14.82;54.82
61568;BME280;47462;59.172;17.196;2022-09-09T07:06:26;101685.56;;;14.82;54.37
61568;BME280;47462;59.172;17.196;2022-09-09T07:08:54;101721.63;;;15.05;53.78
61568;BME280;47462;59.172;17.196;2022-09-09T07:11:21;101727.72;;;15.07;53.95
61568;BME280;47462;59.172;17.196;2022-09-09T07:13:48;101683.56;;;14.90;54.17
61568;BME280;47462;59.172;17.196;2022-09-09T07:16:18;101719.31;;;15.24;53.37
61568;BME280;47462;59.172;17.196;2022-09-09T07:18:44;101723.53;;;15.30;53.58
61568;BME280;47462;59.172;17.196;2022-09-09T07:21:11;101725.28;;;15.29;53.79
61568;BME280;47462;59.172;17.196;2022-09-09T07:23:38;101721.50;;;15.10;53.64
61568;BME280;47462;59.172;17.196;2022-09-09T07:26:12;101730.13;;;15.15;53.85
61568;BME280;47462;59.172;17.196;2022-09-09T07:28:38;101728.44;;;15.12;53.96
61568;BME280;47462;59.172;17.196;2022-09-09T07:31:05;101726.72;;;15.11;54.36
61568;BME280;47462;59.172;17.196;2022-09-09T07:33:32;101726.75;;;15.10;54.79
61568;BME280;47462;59.172;17.196;2022-09-09T07:36:15;101727.91;;;15.29;53.63
61568;BME280;47462;59.172;17.196;2022-09-09T07:38:46;101701.03;;;15.46;53.25
61568;BME280;47462;59.172;17.196;2022-09-09T07:41:16;101691.84;;;15.60;52.86
61568;BME280;47462;59.172;17.196;2022-09-09T07:43:43;101719.50;;;15.72;52.83
61568;BME280;47462;59.172;17.196;2022-09-09T07:46:10;101700.84;;;15.52;53.37
61568;BME280;47462;59.172;17.196;2022-09-09T07:48:37;101727.81;;;15.59;53.40
61568;BME280;47462;59.172;17.196;2022-09-09T07:51:07;101730.09;;;15.43;53.80
61568;BME280;47462;59.172;17.196;2022-09-09T07:53:33;101694.06;;;15.19;53.36
61568;BME280;47462;59.172;17.196;2022-09-09T07:56:09;101728.81;;;15.55;52.89
61568;BME280;47462;59.172;17.196;2022-09-09T07:58:39;101678.56;;;15.38;53.50
61568;BME280;47462;59.172;17.196;2022-09-09T08:01:09;101707.78;;;15.82;52.58
61568;BME280;47462;59.172;17.196;2022-09-09T08:03:35;101723.66;;;15.80;51.88
61568;BME280;47462;59.172;17.196;2022-09-09T08:06:03;101703.38;;;15.56;51.97
61568;BME280;47462;59.172;17.196;2022-09-09T08:08:29;101730.88;;;15.72;51.96
61568;BME280;47462;59.172;17.196;2022-09-09T08:11:00;101739.88;;;15.65;51.82
61568;BME280;47462;59.172;17.196;2022-09-09T08:13:26;101725.63;;;15.72;50.54
61568;BME280;47462;59.172;17.196;2022-09-09T08:15:52;101728.38;;;15.96;50.63
61568;BME280;47462;59.172;17.196;2022-09-09T08:18:17;101736.66;;;16.34;50.46
61568;BME280;47462;59.172;17.196;2022-09-09T08:20:43;101744.94;;;16.48;50.42
61568;BME280;47462;59.172;17.196;2022-09-09T08:23:08;101712.16;;;16.08;50.15
61568;BME280;47462;59.172;17.196;2022-09-09T08:25:34;101753.44;;;16.06;50.32
61568;BME280;47462;59.172;17.196;2022-09-09T08:27:59;101753.78;;;15.97;50.35
61568;BME280;47462;59.172;17.196;2022-09-09T08:30:25;101735.56;;;15.91;49.99
61568;BME280;47462;59.172;17.196;2022-09-09T08:32:51;101748.59;;;15.94;49.37
61568;BME280;47462;59.172;17.196;2022-09-09T08:35:17;101742.34;;;15.98;49.37
61568;BME280;47462;59.172;17.196;2022-09-09T08:37:42;101740.16;;;16.34;48.96
61568;BME280;47462;59.172;17.196;2022-09-09T08:40:28;101738.25;;;16.63;48.21
61568;BME280;47462;59.172;17.196;2022-09-09T08:42:55;101726.19;;;16.56;47.98
61568;BME280;47462;59.172;17.196;2022-09-09T08:46:05;101739.50;;;16.53;48.74
61568;BME280;47462;59.172;17.196;2022-09-09T08:48:36;101748.34;;;16.27;48.77
61568;BME280;47462;59.172;17.196;2022-09-09T08:51:06;101752.31;;;16.13;49.04
61568;BME280;47462;59.172;17.196;2022-09-09T08:53:41;101739.81;;;15.95;49.06
61568;BME280;47462;59.172;17.196;2022-09-09T08:56:13;101747.63;;;16.21;48.86
61568;BME280;47462;59.172;17.196;2022-09-09T08:58:49;101757.03;;;16.29;48.78
61568;BME280;47462;59.172;17.196;2022-09-09T09:01:41;101753.63;;;16.27;48.69
61568;BME280;47462;59.172;17.196;2022-09-09T09:06:58;101754.84;;;16.16;48.25
61568;BME280;47462;59.172;17.196;2022-09-09T09:09:42;101752.44;;;16.10;47.62
61568;BME280;47462;59.172;17.196;2022-09-09T09:12:22;101749.47;;;16.19;47.97
61568;BME280;47462;59.172;17.196;2022-09-09T09:14:48;101750.53;;;16.39;47.55
61568;BME280;47462;59.172;17.196;2022-09-09T09:17:23;101735.19;;;16.98;46.12
61568;BME280;47462;59.172;17.196;2022-09-09T09:19:50;101710.06;;;17.11;45.75
61568;BME280;47462;59.172;17.196;2022-09-09T09:22:50;101726.59;;;16.92;45.74
61568;BME280;47462;59.172;17.196;2022-09-09T09:25:23;101733.81;;;16.87;45.19
61568;BME280;47462;59.172;17.196;2022-09-09T09:30:29;101730.28;;;17.33;42.61
61568;BME280;47462;59.172;17.196;2022-09-09T09:33:55;101733.63;;;17.58;42.64
61568;BME280;47462;59.172;17.196;2022-09-09T09:35:56;101701.16;;;17.56;42.49
61568;BME280;47462;59.172;17.196;2022-09-09T09:38:22;101726.16;;;17.90;42.19
61568;BME280;47462;59.172;17.196;2022-09-09T09:40:58;101714.19;;;18.02;41.82
61568;BME280;47462;59.172;17.196;2022-09-09T09:46:03;101688.78;;;17.36;42.13
61568;BME280;47462;59.172;17.196;2022-09-09T09:48:28;101686.22;;;17.35;43.28
61568;BME280;47462;59.172;17.196;2022-09-09T09:51:02;101723.59;;;17.67;43.40
61568;BME280;47462;59.172;17.196;2022-09-09T09:53:31;101710.53;;;17.63;43.67
61568;BME280;47462;59.172;17.196;2022-09-09T09:56:03;101712.59;;;17.77;43.24
61568;BME280;47462;59.172;17.196;2022-09-09T09:58:37;101724.19;;;17.73;43.07
61568;BME280;47462;59.172;17.196;2022-09-09T10:03:55;101720.03;;;17.88;42.77
61568;BME280;47462;59.172;17.196;2022-09-09T10:06:36;101708.00;;;17.82;42.48
61568;BME280;47462;59.172;17.196;2022-09-09T10:09:04;101674.44;;;17.43;42.76
61568;BME280;47462;59.172;17.196;2022-09-09T10:12:01;101693.88;;;18.04;43.07
61568;BME280;47462;59.172;17.196;2022-09-09T10:20:40;101695.81;;;18.20;42.26
61568;BME280;47462;59.172;17.196;2022-09-09T10:26:04;101699.59;;;18.33;41.44
61568;BME280;47462;59.172;17.196;2022-09-09T10:31:22;101691.72;;;18.52;41.36
61568;BME280;47462;59.172;17.196;2022-09-09T10:33:51;101682.56;;;18.59;41.95
61568;BME280;47462;59.172;17.196;2022-09-09T10:36:21;101703.22;;;18.70;41.33
61568;BME280;47462;59.172;17.196;2022-09-09T10:41:50;101690.72;;;18.54;40.60
61568;BME280;47462;59.172;17.196;2022-09-09T10:47:38;101689.56;;;18.60;40.89
61568;BME280;47462;59.172;17.196;2022-09-09T10:53:30;101689.84;;;18.73;40.35
61568;BME280;47462;59.172;17.196;2022-09-09T10:56:04;101665.75;;;18.60;40.41
61568;BME280;47462;59.172;17.196;2022-09-09T10:58:53;101669.69;;;18.70;39.93
61568;BME280;47462;59.172;17.196;2022-09-09T11:01:23;101690.84;;;18.70;39.66
61568;BME280;47462;59.172;17.196;2022-09-09T11:03:57;101608.22;;;18.29;39.26
61568;BME280;47462;59.172;17.196;2022-09-09T11:06:32;101685.13;;;18.80;39.19
61568;BME280;47462;59.172;17.196;2022-09-09T11:09:02;101685.31;;;19.13;39.59
61568;BME280;47462;59.172;17.196;2022-09-09T11:11:42;101633.69;;;19.04;40.05
61568;BME280;47462;59.172;17.196;2022-09-09T11:14:19;101658.47;;;19.21;39.75
61568;BME280;47462;59.172;17.196;2022-09-09T11:16:52;101660.13;;;19.41;39.26
61568;BME280;47462;59.172;17.196;2022-09-09T11:22:05;101681.03;;;19.63;38.73
61568;BME280;47462;59.172;17.196;2022-09-09T11:24:39;101678.00;;;19.71;38.26
61568;BME280;47462;59.172;17.196;2022-09-09T11:27:16;101655.03;;;19.71;38.31
61568;BME280;47462;59.172;17.196;2022-09-09T11:30:04;101680.59;;;19.90;38.44
61568;BME280;47462;59.172;17.196;2022-09-09T11:38:21;101673.34;;;19.58;38.78
61568;BME280;47462;59.172;17.196;2022-09-09T11:40:58;101666.75;;;19.50;38.90
61568;BME280;47462;59.172;17.196;2022-09-09T11:43:31;101661.97;;;19.56;39.38
61568;BME280;47462;59.172;17.196;2022-09-09T11:46:01;101645.56;;;19.50;39.72
61568;BME280;47462;59.172;17.196;2022-09-09T11:48:42;101640.06;;;19.70;39.71
61568;BME280;47462;59.172;17.196;2022-09-09T11:53:59;101671.19;;;20.18;40.14
61568;BME280;47462;59.172;17.196;2022-09-09T11:59:20;101627.88;;;19.85;39.85
61568;BME280;47462;59.172;17.196;2022-09-09T12:11:41;101661.59;;;19.64;40.83
61568;BME280;47462;59.172;17.196;2022-09-09T12:14:19;101642.28;;;19.62;40.29
61568;BME280;47462;59.172;17.196;2022-09-09T12:16:45;101650.38;;;19.94;40.35
61568;BME280;47462;59.172;17.196;2022-09-09T12:19:14;101654.84;;;20.09;39.78
61568;BME280;47462;59.172;17.196;2022-09-09T12:22:45;101656.03;;;20.20;39.91
61568;BME280;47462;59.172;17.196;2022-09-09T12:24:50;101664.03;;;20.02;39.83
61568;BME280;47462;59.172;17.196;2022-09-09T12:27:24;101646.78;;;19.60;40.70
61568;BME280;47462;59.172;17.196;2022-09-09T12:29:55;101656.59;;;19.75;40.43
61568;BME280;47462;59.172;17.196;2022-09-09T12:32:26;101649.25;;;19.98;40.60
61568;BME280;47462;59.172;17.196;2022-09-09T12:34:58;101646.72;;;20.12;40.38
61568;BME280;47462;59.172;17.196;2022-09-09T12:37:38;101642.13;;;20.32;39.99
61568;BME280;47462;59.172;17.196;2022-09-09T12:40:18;101651.31;;;20.58;40.20
61568;BME280;47462;59.172;17.196;2022-09-09T12:42:44;101611.66;;;20.07;40.21
61568;BME280;47462;59.172;17.196;2022-09-09T12:45:35;101652.47;;;19.70;40.80
61568;BME280;47462;59.172;17.196;2022-09-09T12:48:08;101584.66;;;18.97;41.55
61568;BME280;47462;59.172;17.196;2022-09-09T12:50:37;101647.00;;;19.55;41.67
61568;BME280;47462;59.172;17.196;2022-09-09T12:53:20;101644.91;;;19.80;41.24
61568;BME280;47462;59.172;17.196;2022-09-09T12:55:58;101618.28;;;19.65;41.58
61568;BME280;47462;59.172;17.196;2022-09-09T12:58:25;101629.84;;;19.98;40.91
61568;BME280;47462;59.172;17.196;2022-09-09T13:00:55;101646.31;;;20.36;40.25
61568;BME280;47462;59.172;17.196;2022-09-09T13:03:25;101608.78;;;20.44;40.06
61568;BME280;47462;59.172;17.196;2022-09-09T13:05:51;101641.69;;;20.40;40.04
61568;BME280;47462;59.172;17.196;2022-09-09T13:08:18;101619.81;;;20.20;40.91
61568;BME280;47462;59.172;17.196;2022-09-09T13:10:53;101639.53;;;20.14;41.39
61568;BME280;47462;59.172;17.196;2022-09-09T13:13:27;101633.16;;;19.85;41.36
61568;BME280;47462;59.172;17.196;2022-09-09T13:15:59;101649.91;;;19.51;42.02
61568;BME280;47462;59.172;17.196;2022-09-09T13:18:31;101630.69;;;19.47;42.57
61568;BME280;47462;59.172;17.196;2022-09-09T13:20:58;101626.78;;;19.54;42.73
61568;BME280;47462;59.172;17.196;2022-09-09T13:23:26;101640.66;;;19.77;42.32
61568;BME280;47462;59.172;17.196;2022-09-09T13:25:57;101636.22;;;20.27;41.39
61568;BME280;47462;59.172;17.196;2022-09-09T13:28:25;101637.69;;;20.33;40.95
61568;BME280;47462;59.172;17.196;2022-09-09T13:31:01;101606.75;;;19.84;40.74
61568;BME280;47462;59.172;17.196;2022-09-09T13:33:31;101636.50;;;19.71;41.09
61568;BME280;47462;59.172;17.196;2022-09-09T13:35:59;101641.81;;;19.36;41.72
61568;BME280;47462;59.172;17.196;2022-09-09T13:38:29;101629.91;;;19.10;42.57
61568;BME280;47462;59.172;17.196;2022-09-09T13:41:04;101607.44;;;19.19;42.65
61568;BME280;47462;59.172;17.196;2022-09-09T13:43:35;101623.91;;;20.58;40.08
61568;BME280;47462;59.172;17.196;2022-09-09T13:46:04;101621.44;;;22.75;36.26
61568;BME280;47462;59.172;17.196;2022-09-09T13:48:30;101613.28;;;27.09;29.66
61568;BME280;47462;59.172;17.196;2022-09-09T13:51:01;101616.75;;;28.54;26.51
61568;BME280;47462;59.172;17.196;2022-09-09T13:53:28;101610.59;;;26.77;28.71
61568;BME280;47462;59.172;17.196;2022-09-09T13:55:54;101632.63;;;23.99;32.78
61568;BME280;47462;59.172;17.196;2022-09-09T14:00:45;101636.16;;;21.23;37.52
61568;BME280;47462;59.172;17.196;2022-09-09T14:03:11;101553.72;;;20.17;38.80
61568;BME280;47462;59.172;17.196;2022-09-09T14:05:37;101641.59;;;20.09;40.12
61568;BME280;47462;59.172;17.196;2022-09-09T14:08:07;101638.81;;;19.95;40.39
61568;BME280;47462;59.172;17.196;2022-09-09T14:10:36;101639.03;;;21.03;38.19
61568;BME280;47462;59.172;17.196;2022-09-09T14:13:02;101623.75;;;20.45;38.62
61568;BME280;47462;59.172;17.196;2022-09-09T14:15:28;101638.50;;;19.66;40.89
61568;BME280;47462;59.172;17.196;2022-09-09T14:17:54;101636.56;;;19.00;42.34
61568;BME280;47462;59.172;17.196;2022-09-09T14:20:21;101637.53;;;18.80;43.11
61568;BME280;47462;59.172;17.196;2022-09-09T14:22:48;101594.41;;;18.22;44.02
61568;BME280;47462;59.172;17.196;2022-09-09T14:25:13;101631.31;;;19.35;42.37
61568;BME280;47462;59.172;17.196;2022-09-09T14:27:39;101613.38;;;19.05;42.65
61568;BME280;47462;59.172;17.196;2022-09-09T14:30:05;101591.41;;;18.49;43.15